sensor_id;sensor_type;location;lat;lon;timestamp;pressure;altitude;pressure_sealevel;temperature;humidity
79729;BME280;69218;52.132;5.418;2023-08-20T00:01:22;102169.16;;;17.98;82.73
79729;BME280;69218;52.132;5.418;2023-08-20T00:03:51;102171.22;;;17.95;82.15
79729;BME280;69218;52.132;5.418;2023-08-20T00:06:19;102167.72;;;17.94;81.86
79729;BME280;69218;52.132;5.418;2023-08-20T00:08:47;102173.31;;;17.91;81.95
79729;BME280;69218;52.132;5.418;2023-08-20T00:11:14;102177.91;;;17.89;81.89
79729;BME280;69218;52.132;5.418;2023-08-20T00:13:41;102176.22;;;17.88;81.27
79729;BME280;69218;52.132;5.418;2023-08-20T00:16:08;102184.34;;;17.87;82.31
79729;BME280;69218;52.132;5.418;2023-08-20T00:18:35;102186.56;;;17.81;81.40
79729;BME280;69218;52.132;5.418;2023-08-20T00:21:05;102187.09;;;17.75;82.72
79729;BME280;69218;52.132;5.418;2023-08-20T00:23:31;102192.81;;;17.71;82.73
79729;BME280;69218;52.132;5.418;2023-08-20T00:25:58;102186.91;;;17.67;82.59
79729;BME280;69218;52.132;5.418;2023-08-20T00:28:25;102189.84;;;17.64;82.00
79729;BME280;69218;52.132;5.418;2023-08-20T00:30:51;102180.22;;;17.63;81.56
79729;BME280;69218;52.132;5.418;2023-08-20T00:33:18;102174.06;;;17.63;81.75
79729;BME280;69218;52.132;5.418;2023-08-20T00:35:44;102196.06;;;17.53;84.02
79729;BME280;69218;52.132;5.418;2023-08-20T00:38:11;102193.25;;;17.45;84.11
79729;BME280;69218;52.132;5.418;2023-08-20T00:40:37;102202.88;;;17.46;83.09
79729;BME280;69218;52.132;5.418;2023-08-20T00:43:04;102198.31;;;17.48;83.90
79729;BME280;69218;52.132;5.418;2023-08-20T00:45:31;102196.75;;;17.46;84.48
79729;BME280;69218;52.132;5.418;2023-08-20T00:47:59;102209.84;;;17.47;83.03
79729;BME280;69218;52.132;5.418;2023-08-20T00:50:26;102212.13;;;17.52;83.71
79729;BME280;69218;52.132;5.418;2023-08-20T00:52:52;102218.25;;;17.52;85.25
79729;BME280;69218;52.132;5.418;2023-08-20T00:55:19;102226.06;;;17.54;84.48
79729;BME280;69218;52.132;5.418;2023-08-20T00:57:45;102231.13;;;17.57;83.58
79729;BME280;69218;52.132;5.418;2023-08-20T01:00:12;102229.88;;;17.61;84.52
79729;BME280;69218;52.132;5.418;2023-08-20T01:02:39;102234.09;;;17.64;84.42
79729;BME280;69218;52.132;5.418;2023-08-20T01:05:08;102245.78;;;17.61;84.92
79729;BME280;69218;52.132;5.418;2023-08-20T01:07:57;102232.81;;;17.58;84.27
79729;BME280;69218;52.132;5.418;2023-08-20T01:11:33;102230.44;;;17.55;84.39
79729;BME280;69218;52.132;5.418;2023-08-20T01:13:38;102229.16;;;17.49;83.82
79729;BME280;69218;52.132;5.418;2023-08-20T01:16:04;102229.53;;;17.45;84.47
79729;BME280;69218;52.132;5.418;2023-08-20T01:18:32;102227.28;;;17.40;84.95
79729;BME280;69218;52.132;5.418;2023-08-20T01:21:02;102228.38;;;17.38;83.70
79729;BME280;69218;52.132;5.418;2023-08-20T01:28:57;102257.09;;;17.33;86.26
79729;BME280;69218;52.132;5.418;2023-08-20T01:31:25;102259.63;;;17.34;85.16
79729;BME280;69218;52.132;5.418;2023-08-20T01:33:52;102257.41;;;17.39;83.72
79729;BME280;69218;52.132;5.418;2023-08-20T01:36:23;102263.44;;;17.41;84.33
79729;BME280;69218;52.132;5.418;2023-08-20T01:38:50;102264.38;;;17.40;83.39
79729;BME280;69218;52.132;5.418;2023-08-20T01:41:17;102258.25;;;17.40;82.89
79729;BME280;69218;52.132;5.418;2023-08-20T01:43:44;102265.38;;;17.39;83.91
79729;BME280;69218;52.132;5.418;2023-08-20T01:46:10;102257.53;;;17.38;83.38
79729;BME280;69218;52.132;5.418;2023-08-20T01:48:39;102263.13;;;17.35;83.91
79729;BME280;69218;52.132;5.418;2023-08-20T01:51:05;102258.06;;;17.32;82.63
79729;BME280;69218;52.132;5.418;2023-08-20T01:53:32;102267.00;;;17.30;83.66
79729;BME280;69218;52.132;5.418;2023-08-20T01:55:59;102266.81;;;17.22;83.04
79729;BME280;69218;52.132;5.418;2023-08-20T01:58:25;102266.13;;;17.20;82.81
79729;BME280;69218;52.132;5.418;2023-08-20T02:00:52;102267.78;;;17.21;82.85
79729;BME280;69218;52.132;5.418;2023-08-20T02:03:19;102272.13;;;17.22;83.31
79729;BME280;69218;52.132;5.418;2023-08-20T02:05:45;102280.22;;;17.21;85.18
79729;BME280;69218;52.132;5.418;2023-08-20T02:08:12;102266.13;;;17.20;83.48
79729;BME280;69218;52.132;5.418;2023-08-20T02:10:38;102273.09;;;17.21;85.19
79729;BME280;69218;52.132;5.418;2023-08-20T02:13:05;102270.69;;;17.18;85.51
79729;BME280;69218;52.132;5.418;2023-08-20T02:15:33;102280.72;;;17.15;86.02
79729;BME280;69218;52.132;5.418;2023-08-20T02:18:00;102276.63;;;17.11;84.01
79729;BME280;69218;52.132;5.418;2023-08-20T02:20:27;102271.47;;;17.09;84.62
79729;BME280;69218;52.132;5.418;2023-08-20T02:22:54;102266.56;;;17.05;84.85
79729;BME280;69218;52.132;5.418;2023-08-20T02:25:23;102267.78;;;17.00;84.51
79729;BME280;69218;52.132;5.418;2023-08-20T02:27:51;102266.13;;;16.99;84.60
79729;BME280;69218;52.132;5.418;2023-08-20T02:30:17;102262.03;;;16.95;84.77
79729;BME280;69218;52.132;5.418;2023-08-20T02:32:44;102249.06;;;16.92;84.05
79729;BME280;69218;52.132;5.418;2023-08-20T02:35:10;102247.25;;;16.93;83.93
79729;BME280;69218;52.132;5.418;2023-08-20T02:37:39;102251.94;;;16.89;84.25
79729;BME280;69218;52.132;5.418;2023-08-20T02:40:08;102246.91;;;16.86;83.93
79729;BME280;69218;52.132;5.418;2023-08-20T02:42:35;102243.53;;;16.84;84.13
79729;BME280;69218;52.132;5.418;2023-08-20T02:45:01;102239.47;;;16.80;84.54
79729;BME280;69218;52.132;5.418;2023-08-20T02:47:28;102232.50;;;16.79;83.65
79729;BME280;69218;52.132;5.418;2023-08-20T02:49:54;102240.47;;;16.79;83.78
79729;BME280;69218;52.132;5.418;2023-08-20T02:52:21;102236.22;;;16.77;83.71
79729;BME280;69218;52.132;5.418;2023-08-20T02:54:50;102231.34;;;16.72;84.97
79729;BME280;69218;52.132;5.418;2023-08-20T02:57:16;102232.41;;;16.69;85.30
79729;BME280;69218;52.132;5.418;2023-08-20T02:59:43;102237.13;;;16.66;84.50
79729;BME280;69218;52.132;5.418;2023-08-20T03:02:09;102236.50;;;16.62;86.37
79729;BME280;69218;52.132;5.418;2023-08-20T03:04:36;102243.28;;;16.55;87.11
79729;BME280;69218;52.132;5.418;2023-08-20T03:07:02;102238.25;;;16.52;85.13
79729;BME280;69218;52.132;5.418;2023-08-20T03:09:29;102247.16;;;16.51;84.35
79729;BME280;69218;52.132;5.418;2023-08-20T03:11:55;102249.22;;;16.47;84.90
79729;BME280;69218;52.132;5.418;2023-08-20T03:14:22;102238.88;;;16.44;84.42
79729;BME280;69218;52.132;5.418;2023-08-20T03:16:50;102246.97;;;16.43;84.50
79729;BME280;69218;52.132;5.418;2023-08-20T03:19:17;102245.38;;;16.40;83.85
79729;BME280;69218;52.132;5.418;2023-08-20T03:21:44;102250.25;;;16.35;84.85
79729;BME280;69218;52.132;5.418;2023-08-20T03:24:10;102247.97;;;16.31;84.98
79729;BME280;69218;52.132;5.418;2023-08-20T03:26:37;102241.94;;;16.29;84.74
79729;BME280;69218;52.132;5.418;2023-08-20T03:29:04;102236.06;;;16.25;84.87
79729;BME280;69218;52.132;5.418;2023-08-20T03:31:34;102242.59;;;16.21;84.13
79729;BME280;69218;52.132;5.418;2023-08-20T03:34:00;102248.81;;;16.20;84.92
79729;BME280;69218;52.132;5.418;2023-08-20T03:36:27;102248.81;;;16.20;84.69
79729;BME280;69218;52.132;5.418;2023-08-20T03:38:53;102255.19;;;16.17;84.53
79729;BME280;69218;52.132;5.418;2023-08-20T03:41:20;102265.66;;;16.19;84.44
79729;BME280;69218;52.132;5.418;2023-08-20T03:43:46;102265.66;;;16.19;83.81
79729;BME280;69218;52.132;5.418;2023-08-20T03:46:13;102264.81;;;16.18;84.52
79729;BME280;69218;52.132;5.418;2023-08-20T03:48:39;102268.16;;;16.20;85.04
79729;BME280;69218;52.132;5.418;2023-08-20T03:51:06;102268.16;;;16.20;84.41
79729;BME280;69218;52.132;5.418;2023-08-20T03:53:33;102266.63;;;16.18;85.08
79729;BME280;69218;52.132;5.418;2023-08-20T03:56:00;102278.19;;;16.17;85.79
79729;BME280;69218;52.132;5.418;2023-08-20T03:58:26;102279.28;;;16.14;84.95
79729;BME280;69218;52.132;5.418;2023-08-20T04:00:53;102282.84;;;16.13;86.48
79729;BME280;69218;52.132;5.418;2023-08-20T04:03:19;102283.94;;;16.11;86.42
79729;BME280;69218;52.132;5.418;2023-08-20T04:05:46;102285.91;;;16.09;86.61
79729;BME280;69218;52.132;5.418;2023-08-20T04:08:12;102283.38;;;16.07;86.34
79729;BME280;69218;52.132;5.418;2023-08-20T04:10:43;102285.16;;;16.07;85.05
79729;BME280;69218;52.132;5.418;2023-08-20T04:13:11;102294.19;;;16.04;86.29
79729;BME280;69218;52.132;5.418;2023-08-20T04:15:38;102300.69;;;16.00;85.10
79729;BME280;69218;52.132;5.418;2023-08-20T04:18:04;102295.41;;;16.00;84.05
79729;BME280;69218;52.132;5.418;2023-08-20T04:20:32;102297.94;;;16.02;84.04
79729;BME280;69218;52.132;5.418;2023-08-20T04:22:58;102297.78;;;16.03;83.89
79729;BME280;69218;52.132;5.418;2023-08-20T04:25:25;102298.63;;;16.04;84.24
79729;BME280;69218;52.132;5.418;2023-08-20T04:27:51;102296.13;;;16.02;84.46
79729;BME280;69218;52.132;5.418;2023-08-20T04:30:18;102299.47;;;16.04;83.63
79729;BME280;69218;52.132;5.418;2023-08-20T04:32:44;102304.06;;;16.02;83.90
79729;BME280;69218;52.132;5.418;2023-08-20T04:35:11;102306.81;;;16.01;83.97
79729;BME280;69218;52.132;5.418;2023-08-20T04:37:37;102308.63;;;16.00;84.45
79729;BME280;69218;52.132;5.418;2023-08-20T04:40:05;102309.47;;;16.01;83.95
79729;BME280;69218;52.132;5.418;2023-08-20T04:42:31;102308.63;;;16.00;84.16
79729;BME280;69218;52.132;5.418;2023-08-20T04:44:58;102308.50;;;16.02;85.14
79729;BME280;69218;52.132;5.418;2023-08-20T04:47:24;102307.66;;;16.01;84.59
79729;BME280;69218;52.132;5.418;2023-08-20T04:49:51;102313.66;;;16.03;84.46
79729;BME280;69218;52.132;5.418;2023-08-20T04:52:18;102315.47;;;16.03;85.28
79729;BME280;69218;52.132;5.418;2023-08-20T04:54:47;102313.78;;;16.02;85.48
79729;BME280;69218;52.132;5.418;2023-08-20T04:57:14;102320.91;;;16.01;84.41
79729;BME280;69218;52.132;5.418;2023-08-20T04:59:40;102318.34;;;16.00;85.43
79729;BME280;69218;52.132;5.418;2023-08-20T05:02:11;102322.78;;;15.99;84.75
79729;BME280;69218;52.132;5.418;2023-08-20T05:04:39;102331.56;;;16.00;83.95
79729;BME280;69218;52.132;5.418;2023-08-20T05:07:06;102321.97;;;15.99;83.54
79729;BME280;69218;52.132;5.418;2023-08-20T05:09:32;102326.19;;;16.01;84.03
79729;BME280;69218;52.132;5.418;2023-08-20T05:11:59;102333.16;;;16.02;84.77
79729;BME280;69218;52.132;5.418;2023-08-20T05:14:26;102333.16;;;16.02;83.99
79729;BME280;69218;52.132;5.418;2023-08-20T05:16:52;102333.16;;;16.02;84.35
79729;BME280;69218;52.132;5.418;2023-08-20T05:19:19;102335.09;;;16.00;84.54
79729;BME280;69218;52.132;5.418;2023-08-20T05:21:45;102334.13;;;16.01;83.87
79729;BME280;69218;52.132;5.418;2023-08-20T05:24:12;102333.03;;;16.04;84.21
79729;BME280;69218;52.132;5.418;2023-08-20T05:26:38;102328.81;;;16.01;85.15
79729;BME280;69218;52.132;5.418;2023-08-20T05:29:05;102333.28;;;16.01;84.91
79729;BME280;69218;52.132;5.418;2023-08-20T05:31:31;102330.50;;;16.02;85.13
79729;BME280;69218;52.132;5.418;2023-08-20T05:33:58;102332.31;;;16.02;84.12
79729;BME280;69218;52.132;5.418;2023-08-20T05:36:25;102337.34;;;16.05;83.81
79729;BME280;69218;52.132;5.418;2023-08-20T05:38:51;102331.09;;;16.06;84.71
79729;BME280;69218;52.132;5.418;2023-08-20T05:41:18;102338.06;;;16.07;84.16
79729;BME280;69218;52.132;5.418;2023-08-20T05:43:44;102343.13;;;16.10;85.79
79729;BME280;69218;52.132;5.418;2023-08-20T05:46:11;102334.94;;;16.13;85.23
79729;BME280;69218;52.132;5.418;2023-08-20T05:48:37;102334.84;;;16.14;86.02
79729;BME280;69218;52.132;5.418;2023-08-20T05:51:04;102337.22;;;16.17;86.45
79729;BME280;69218;52.132;5.418;2023-08-20T05:53:30;102342.38;;;16.19;84.88
79729;BME280;69218;52.132;5.418;2023-08-20T05:55:57;102343.84;;;16.23;87.04
79729;BME280;69218;52.132;5.418;2023-08-20T05:58:24;102335.50;;;16.28;87.67
79729;BME280;69218;52.132;5.418;2023-08-20T06:00:50;102337.09;;;16.30;88.46
79729;BME280;69218;52.132;5.418;2023-08-20T06:03:16;102330.72;;;16.33;87.83
79729;BME280;69218;52.132;5.418;2023-08-20T06:05:43;102334.81;;;16.37;88.02
79729;BME280;69218;52.132;5.418;2023-08-20T06:08:09;102333.56;;;16.41;88.02
79729;BME280;69218;52.132;5.418;2023-08-20T06:10:36;102330.44;;;16.47;88.96
79729;BME280;69218;52.132;5.418;2023-08-20T06:13:03;102335.38;;;16.52;89.26
79729;BME280;69218;52.132;5.418;2023-08-20T06:15:30;102327.06;;;16.56;89.88
79729;BME280;69218;52.132;5.418;2023-08-20T06:17:56;102331.13;;;16.60;90.02
79729;BME280;69218;52.132;5.418;2023-08-20T06:20:23;102328.13;;;16.65;89.62
79729;BME280;69218;52.132;5.418;2023-08-20T06:22:49;102332.81;;;16.72;90.16
79729;BME280;69218;52.132;5.418;2023-08-20T06:25:16;102333.28;;;16.78;89.64
79729;BME280;69218;52.132;5.418;2023-08-20T06:27:42;102326.63;;;16.83;89.36
79729;BME280;69218;52.132;5.418;2023-08-20T06:30:09;102332.13;;;16.91;89.65
79729;BME280;69218;52.132;5.418;2023-08-20T06:32:36;102334.53;;;16.94;88.69
79729;BME280;69218;52.132;5.418;2023-08-20T06:35:02;102329.44;;;17.02;89.16
79729;BME280;69218;52.132;5.418;2023-08-20T06:37:29;102336.75;;;17.10;89.17
79729;BME280;69218;52.132;5.418;2023-08-20T06:39:58;102339.72;;;17.17;89.51
79729;BME280;69218;52.132;5.418;2023-08-20T06:42:24;102344.25;;;17.26;88.98
79729;BME280;69218;52.132;5.418;2023-08-20T06:44:51;102333.72;;;17.36;88.31
79729;BME280;69218;52.132;5.418;2023-08-20T06:47:17;102333.63;;;17.47;88.64
79729;BME280;69218;52.132;5.418;2023-08-20T06:49:44;102342.00;;;17.63;88.41
79729;BME280;69218;52.132;5.418;2023-08-20T06:52:11;102339.88;;;17.78;88.18
79729;BME280;69218;52.132;5.418;2023-08-20T06:54:37;102332.53;;;17.91;87.53
79729;BME280;69218;52.132;5.418;2023-08-20T06:57:04;102335.91;;;18.03;86.26
79729;BME280;69218;52.132;5.418;2023-08-20T06:59:30;102335.66;;;18.16;86.31
79729;BME280;69218;52.132;5.418;2023-08-20T07:01:57;102326.63;;;18.28;86.53
79729;BME280;69218;52.132;5.418;2023-08-20T07:04:24;102324.72;;;18.39;84.83
79729;BME280;69218;52.132;5.418;2023-08-20T07:06:51;102330.72;;;18.51;83.61
79729;BME280;69218;52.132;5.418;2023-08-20T07:09:17;102326.00;;;18.64;84.65
79729;BME280;69218;52.132;5.418;2023-08-20T07:11:44;102324.34;;;18.73;83.24
79729;BME280;69218;52.132;5.418;2023-08-20T07:14:13;102323.09;;;18.87;82.56
79729;BME280;69218;52.132;5.418;2023-08-20T07:16:40;102326.44;;;18.99;80.92
79729;BME280;69218;52.132;5.418;2023-08-20T07:19:06;102331.50;;;19.11;81.80
79729;BME280;69218;52.132;5.418;2023-08-20T07:21:33;102326.84;;;19.23;81.49
79729;BME280;69218;52.132;5.418;2023-08-20T07:24:00;102338.00;;;19.36;82.26
79729;BME280;69218;52.132;5.418;2023-08-20T07:26:27;102341.78;;;19.43;81.56
79729;BME280;69218;52.132;5.418;2023-08-20T07:28:53;102344.72;;;19.50;80.28
79729;BME280;69218;52.132;5.418;2023-08-20T07:31:27;102347.66;;;19.66;79.88
79729;BME280;69218;52.132;5.418;2023-08-20T07:33:55;102350.81;;;19.80;80.04
79729;BME280;69218;52.132;5.418;2023-08-20T07:36:23;102341.41;;;19.85;79.36
79729;BME280;69218;52.132;5.418;2023-08-20T07:38:51;102349.31;;;20.05;80.23
79729;BME280;69218;52.132;5.418;2023-08-20T07:41:18;102345.84;;;20.22;78.94
79729;BME280;69218;52.132;5.418;2023-08-20T07:43:47;102343.00;;;20.33;78.39
79729;BME280;69218;52.132;5.418;2023-08-20T07:46:14;102355.72;;;20.39;76.44
79729;BME280;69218;52.132;5.418;2023-08-20T07:48:41;102352.50;;;20.45;77.55
79729;BME280;69218;52.132;5.418;2023-08-20T07:51:08;102350.16;;;20.60;76.87
79729;BME280;69218;52.132;5.418;2023-08-20T07:53:35;102353.44;;;20.72;76.18
79729;BME280;69218;52.132;5.418;2023-08-20T07:56:02;102350.63;;;20.91;77.35
79729;BME280;69218;52.132;5.418;2023-08-20T07:58:28;102355.56;;;21.04;74.36
79729;BME280;69218;52.132;5.418;2023-08-20T08:00:56;102351.69;;;21.16;75.78
79729;BME280;69218;52.132;5.418;2023-08-20T08:03:27;102360.56;;;21.25;73.13
79729;BME280;69218;52.132;5.418;2023-08-20T08:05:54;102361.22;;;21.36;75.08
79729;BME280;69218;52.132;5.418;2023-08-20T08:08:21;102361.47;;;21.51;74.23
79729;BME280;69218;52.132;5.418;2023-08-20T08:10:49;102365.66;;;21.54;70.97
79729;BME280;69218;52.132;5.418;2023-08-20T08:13:19;102366.47;;;21.54;70.77
79729;BME280;69218;52.132;5.418;2023-08-20T08:15:46;102361.41;;;21.69;71.83
79729;BME280;69218;52.132;5.418;2023-08-20T08:18:13;102371.84;;;21.88;72.34
79729;BME280;69218;52.132;5.418;2023-08-20T08:20:40;102375.19;;;21.90;68.53
79729;BME280;69218;52.132;5.418;2023-08-20T08:23:07;102368.56;;;21.94;67.45
79729;BME280;69218;52.132;5.418;2023-08-20T08:25:34;102369.97;;;22.07;69.00
79729;BME280;69218;52.132;5.418;2023-08-20T08:28:00;102375.16;;;22.08;67.76
79729;BME280;69218;52.132;5.418;2023-08-20T08:30:27;102367.34;;;22.15;69.23
79729;BME280;69218;52.132;5.418;2023-08-20T08:32:55;102378.75;;;22.33;66.41
79729;BME280;69218;52.132;5.418;2023-08-20T08:35:22;102376.47;;;22.46;68.80
79729;BME280;69218;52.132;5.418;2023-08-20T08:37:48;102380.00;;;22.55;65.88
79729;BME280;69218;52.132;5.418;2023-08-20T08:40:15;102376.34;;;22.64;64.80
79729;BME280;69218;52.132;5.418;2023-08-20T08:42:42;102381.91;;;22.79;66.70
79729;BME280;69218;52.132;5.418;2023-08-20T08:45:09;102374.56;;;22.89;64.42
79729;BME280;69218;52.132;5.418;2023-08-20T08:47:39;102385.44;;;23.04;65.58
79729;BME280;69218;52.132;5.418;2023-08-20T08:50:07;102382.09;;;23.18;61.90
79729;BME280;69218;52.132;5.418;2023-08-20T08:52:34;102383.28;;;23.24;61.55
79729;BME280;69218;52.132;5.418;2023-08-20T08:55:04;102387.78;;;23.32;61.26
79729;BME280;69218;52.132;5.418;2023-08-20T08:57:31;102388.78;;;23.39;61.99
79729;BME280;69218;52.132;5.418;2023-08-20T08:59:58;102381.94;;;23.44;62.00
79729;BME280;69218;52.132;5.418;2023-08-20T09:02:25;102383.75;;;23.60;62.95
79729;BME280;69218;52.132;5.418;2023-08-20T09:04:52;102385.28;;;23.71;62.39
79729;BME280;69218;52.132;5.418;2023-08-20T09:07:18;102376.84;;;23.90;64.12
79729;BME280;69218;52.132;5.418;2023-08-20T09:09:46;102381.66;;;24.03;61.68
79729;BME280;69218;52.132;5.418;2023-08-20T09:12:19;102374.41;;;24.20;61.05
79729;BME280;69218;52.132;5.418;2023-08-20T09:14:47;102376.53;;;24.24;60.02
79729;BME280;69218;52.132;5.418;2023-08-20T09:17:14;102379.50;;;24.37;62.00
79729;BME280;69218;52.132;5.418;2023-08-20T09:19:42;102384.88;;;24.37;59.20
79729;BME280;69218;52.132;5.418;2023-08-20T09:22:14;102378.31;;;24.48;59.35
79729;BME280;69218;52.132;5.418;2023-08-20T09:24:52;102370.13;;;24.42;57.19
79729;BME280;69218;52.132;5.418;2023-08-20T09:27:19;102378.75;;;24.52;58.08
79729;BME280;69218;52.132;5.418;2023-08-20T09:29:51;102373.47;;;24.66;58.50
79729;BME280;69218;52.132;5.418;2023-08-20T09:32:23;102382.34;;;24.75;56.63
79729;BME280;69218;52.132;5.418;2023-08-20T09:34:52;102391.34;;;24.82;54.92
79729;BME280;69218;52.132;5.418;2023-08-20T09:37:21;102382.91;;;24.85;54.86
79729;BME280;69218;52.132;5.418;2023-08-20T09:39:48;102385.13;;;24.82;56.55
79729;BME280;69218;52.132;5.418;2023-08-20T09:42:15;102381.69;;;24.96;56.65
79729;BME280;69218;52.132;5.418;2023-08-20T09:44:44;102381.28;;;25.07;55.02
79729;BME280;69218;52.132;5.418;2023-08-20T09:47:15;102375.28;;;25.20;55.54
79729;BME280;69218;52.132;5.418;2023-08-20T09:49:47;102377.00;;;25.36;56.73
79729;BME280;69218;52.132;5.418;2023-08-20T09:52:25;102382.47;;;25.42;55.11
79729;BME280;69218;52.132;5.418;2023-08-20T09:57:34;102386.50;;;25.61;56.54
79729;BME280;69218;52.132;5.418;2023-08-20T10:00:03;102385.28;;;25.64;53.79
79729;BME280;69218;52.132;5.418;2023-08-20T10:02:33;102384.94;;;25.67;55.27
79729;BME280;69218;52.132;5.418;2023-08-20T10:05:00;102387.13;;;25.63;51.59
79729;BME280;69218;52.132;5.418;2023-08-20T10:07:29;102382.03;;;25.68;52.80
79729;BME280;69218;52.132;5.418;2023-08-20T10:10:08;102389.31;;;25.83;53.62
79729;BME280;69218;52.132;5.418;2023-08-20T10:12:40;102384.47;;;25.93;54.43
79729;BME280;69218;52.132;5.418;2023-08-20T10:15:11;102392.81;;;25.98;52.85
79729;BME280;69218;52.132;5.418;2023-08-20T10:17:39;102394.97;;;26.02;51.16
79729;BME280;69218;52.132;5.418;2023-08-20T10:20:08;102404.69;;;26.04;50.13
79729;BME280;69218;52.132;5.418;2023-08-20T10:22:40;102403.38;;;26.14;51.49
79729;BME280;69218;52.132;5.418;2023-08-20T10:25:09;102394.88;;;26.11;49.50
79729;BME280;69218;52.132;5.418;2023-08-20T10:27:38;102400.25;;;25.96;50.84
79729;BME280;69218;52.132;5.418;2023-08-20T10:30:17;102391.22;;;26.18;52.39
79729;BME280;69218;52.132;5.418;2023-08-20T10:32:52;102394.00;;;26.40;48.77
79729;BME280;69218;52.132;5.418;2023-08-20T10:35:29;102389.53;;;26.47;50.38
79729;BME280;69218;52.132;5.418;2023-08-20T10:38:13;102381.16;;;26.56;51.13
79729;BME280;69218;52.132;5.418;2023-08-20T10:40:56;102388.03;;;26.59;50.84
79729;BME280;69218;52.132;5.418;2023-08-20T10:46:15;102386.75;;;26.76;48.00
79729;BME280;69218;52.132;5.418;2023-08-20T10:48:53;102381.25;;;26.84;48.80
79729;BME280;69218;52.132;5.418;2023-08-20T10:56:54;102391.94;;;27.42;48.24
79729;BME280;69218;52.132;5.418;2023-08-20T10:59:22;102385.75;;;27.48;47.05
79729;BME280;69218;52.132;5.418;2023-08-20T11:01:51;102387.78;;;27.68;45.30
79729;BME280;69218;52.132;5.418;2023-08-20T11:04:20;102388.38;;;27.35;46.33
79729;BME280;69218;52.132;5.418;2023-08-20T11:06:50;102387.81;;;27.46;47.62
79729;BME280;69218;52.132;5.418;2023-08-20T11:09:18;102385.56;;;27.78;47.54
79729;BME280;69218;52.132;5.418;2023-08-20T11:11:46;102385.91;;;28.03;45.36
79729;BME280;69218;52.132;5.418;2023-08-20T11:14:14;102386.44;;;27.85;44.70
79729;BME280;69218;52.132;5.418;2023-08-20T11:16:42;102389.47;;;27.47;45.30
79729;BME280;69218;52.132;5.418;2023-08-20T11:19:12;102389.97;;;27.57;48.60
79729;BME280;69218;52.132;5.418;2023-08-20T11:21:41;102387.91;;;27.59;48.58
79729;BME280;69218;52.132;5.418;2023-08-20T11:24:09;102394.03;;;27.47;47.28
79729;BME280;69218;52.132;5.418;2023-08-20T11:26:39;102396.72;;;27.47;43.94
79729;BME280;69218;52.132;5.418;2023-08-20T11:29:06;102394.69;;;27.83;44.09
79729;BME280;69218;52.132;5.418;2023-08-20T11:31:36;102390.31;;;28.17;44.04
79729;BME280;69218;52.132;5.418;2023-08-20T11:34:03;102378.63;;;28.44;45.43
79729;BME280;69218;52.132;5.418;2023-08-20T11:36:30;102384.03;;;28.51;45.48
79729;BME280;69218;52.132;5.418;2023-08-20T11:38:58;102374.59;;;28.27;48.88
79729;BME280;69218;52.132;5.418;2023-08-20T11:41:25;102377.41;;;28.06;42.54
79729;BME280;69218;52.132;5.418;2023-08-20T11:43:52;102378.41;;;27.63;42.53
79729;BME280;69218;52.132;5.418;2023-08-20T11:46:21;102382.50;;;27.31;47.38
79729;BME280;69218;52.132;5.418;2023-08-20T11:49:07;102375.69;;;27.07;48.56
79729;BME280;69218;52.132;5.418;2023-08-20T11:51:42;102371.81;;;26.95;47.77
79729;BME280;69218;52.132;5.418;2023-08-20T11:54:11;102376.94;;;26.90;48.81
79729;BME280;69218;52.132;5.418;2023-08-20T11:56:51;102374.13;;;26.98;48.81
79729;BME280;69218;52.132;5.418;2023-08-20T11:59:20;102367.06;;;26.97;49.33
79729;BME280;69218;52.132;5.418;2023-08-20T12:01:56;102369.34;;;27.15;49.89
79729;BME280;69218;52.132;5.418;2023-08-20T12:04:27;102357.13;;;27.19;50.33
79729;BME280;69218;52.132;5.418;2023-08-20T12:07:13;102362.22;;;27.29;51.44
79729;BME280;69218;52.132;5.418;2023-08-20T12:09:40;102357.38;;;27.24;44.56
79729;BME280;69218;52.132;5.418;2023-08-20T12:12:07;102353.09;;;27.30;52.37
79729;BME280;69218;52.132;5.418;2023-08-20T12:14:35;102345.63;;;27.32;45.88
79729;BME280;69218;52.132;5.418;2023-08-20T12:17:03;102347.28;;;27.33;45.43
79729;BME280;69218;52.132;5.418;2023-08-20T12:19:30;102350.19;;;27.59;44.35
79729;BME280;69218;52.132;5.418;2023-08-20T12:21:56;102356.41;;;27.95;45.10
79729;BME280;69218;52.132;5.418;2023-08-20T12:24:23;102360.66;;;28.24;41.51
79729;BME280;69218;52.132;5.418;2023-08-20T12:26:50;102354.44;;;28.23;45.69
79729;BME280;69218;52.132;5.418;2023-08-20T12:29:16;102358.72;;;28.52;43.97
79729;BME280;69218;52.132;5.418;2023-08-20T12:31:43;102365.59;;;28.68;43.99
79729;BME280;69218;52.132;5.418;2023-08-20T12:34:09;102367.47;;;28.81;41.98
79729;BME280;69218;52.132;5.418;2023-08-20T12:36:36;102374.94;;;28.72;42.92
79729;BME280;69218;52.132;5.418;2023-08-20T12:39:03;102375.13;;;28.64;44.97
79729;BME280;69218;52.132;5.418;2023-08-20T12:41:31;102378.38;;;28.39;44.70
79729;BME280;69218;52.132;5.418;2023-08-20T12:43:58;102384.25;;;28.08;44.96
79729;BME280;69218;52.132;5.418;2023-08-20T12:46:25;102386.06;;;27.95;42.80
79729;BME280;69218;52.132;5.418;2023-08-20T12:48:51;102379.72;;;27.74;43.10
79729;BME280;69218;52.132;5.418;2023-08-20T12:51:18;102382.72;;;27.58;43.40
79729;BME280;69218;52.132;5.418;2023-08-20T12:53:45;102378.56;;;27.62;44.63
79729;BME280;69218;52.132;5.418;2023-08-20T12:56:11;102373.41;;;27.60;43.51
79729;BME280;69218;52.132;5.418;2023-08-20T12:58:38;102385.13;;;27.74;42.75
79729;BME280;69218;52.132;5.418;2023-08-20T13:01:04;102375.06;;;27.61;46.44
79729;BME280;69218;52.132;5.418;2023-08-20T13:03:31;102383.28;;;27.53;45.63
79729;BME280;69218;52.132;5.418;2023-08-20T13:05:59;102368.56;;;27.77;43.83
79729;BME280;69218;52.132;5.418;2023-08-20T13:08:26;102376.69;;;27.84;46.10
79729;BME280;69218;52.132;5.418;2023-08-20T13:10:54;102376.91;;;27.89;46.01